sensor_id;sensor_type;location;lat;lon;timestamp;pressure;altitude;pressure_sealevel;temperature;humidity
4598;BME280;62772;48.646;8.906;2023-04-19T00:03:22;96759.84;;;8.31;100.00
4598;BME280;62772;48.646;8.906;2023-04-19T00:08:25;96762.50;;;8.31;100.00
4598;BME280;62772;48.646;8.906;2023-04-19T00:13:25;96765.25;;;8.26;100.00
4598;BME280;62772;48.646;8.906;2023-04-19T00:18:26;96766.03;;;8.27;100.00
4598;BME280;62772;48.646;8.906;2023-04-19T00:23:26;96758.72;;;8.13;100.00
4598;BME280;62772;48.646;8.906;2023-04-19T00:28:27;96750.41;;;8.20;100.00
4598;BME280;62772;48.646;8.906;2023-04-19T00:33:27;96752.78;;;8.22;100.00
4598;BME280;62772;48.646;8.906;2023-04-19T00:38:30;96752.50;;;8.23;100.00
4598;BME280;62772;48.646;8.906;2023-04-19T00:43:31;96743.69;;;7.98;100.00
4598;BME280;62772;48.646;8.906;2023-04-19T00:48:33;96740.94;;;8.09;100.00
4598;BME280;62772;48.646;8.906;2023-04-19T00:53:35;96746.63;;;8.02;100.00
4598;BME280;62772;48.646;8.906;2023-04-19T00:58:37;96739.47;;;7.97;100.00
4598;BME280;62772;48.646;8.906;2023-04-19T01:03:38;96736.63;;;7.89;100.00
4598;BME280;62772;48.646;8.906;2023-04-19T01:08:39;96734.72;;;7.94;100.00
4598;BME280;62772;48.646;8.906;2023-04-19T01:13:40;96729.22;;;7.86;100.00
4598;BME280;62772;48.646;8.906;2023-04-19T01:18:40;96730.31;;;7.85;100.00
4598;BME280;62772;48.646;8.906;2023-04-19T01:23:41;96731.16;;;7.80;100.00
4598;BME280;62772;48.646;8.906;2023-04-19T01:28:41;96728.47;;;7.80;100.00
4598;BME280;62772;48.646;8.906;2023-04-19T01:33:43;96720.22;;;7.81;100.00
4598;BME280;62772;48.646;8.906;2023-04-19T01:38:43;96715.69;;;7.82;100.00
4598;BME280;62772;48.646;8.906;2023-04-19T01:43:46;96708.13;;;7.70;100.00
4598;BME280;62772;48.646;8.906;2023-04-19T01:48:47;96707.84;;;7.72;100.00
4598;BME280;62772;48.646;8.906;2023-04-19T01:53:47;96704.91;;;7.68;100.00
4598;BME280;62772;48.646;8.906;2023-04-19T01:58:52;96694.84;;;7.65;100.00
4598;BME280;62772;48.646;8.906;2023-04-19T02:03:53;96691.91;;;7.67;100.00
4598;BME280;62772;48.646;8.906;2023-04-19T02:08:54;96696.44;;;7.66;100.00
4598;BME280;62772;48.646;8.906;2023-04-19T02:13:54;96680.84;;;7.59;100.00
4598;BME280;62772;48.646;8.906;2023-04-19T02:18:56;96676.13;;;7.51;100.00
4598;BME280;62772;48.646;8.906;2023-04-19T02:23:56;96675.84;;;7.53;100.00
4598;BME280;62772;48.646;8.906;2023-04-19T02:28:57;96682.47;;;7.55;100.00
4598;BME280;62772;48.646;8.906;2023-04-19T02:33:57;96678.72;;;7.56;100.00
4598;BME280;62772;48.646;8.906;2023-04-19T02:38:58;96668.72;;;7.48;100.00
4598;BME280;62772;48.646;8.906;2023-04-19T02:43:58;96668.09;;;7.56;100.00
4598;BME280;62772;48.646;8.906;2023-04-19T02:49:02;96660.19;;;7.51;100.00
4598;BME280;62772;48.646;8.906;2023-04-19T02:54:03;96657.06;;;7.44;100.00
4598;BME280;62772;48.646;8.906;2023-04-19T02:59:05;96653.66;;;7.09;100.00
4598;BME280;62772;48.646;8.906;2023-04-19T03:04:06;96656.78;;;7.16;100.00
4598;BME280;62772;48.646;8.906;2023-04-19T03:09:07;96659.88;;;7.29;100.00
4598;BME280;62772;48.646;8.906;2023-04-19T03:14:07;96647.66;;;7.28;100.00
4598;BME280;62772;48.646;8.906;2023-04-19T03:19:08;96657.34;;;7.13;100.00
4598;BME280;62772;48.646;8.906;2023-04-19T03:24:13;96651.63;;;6.96;100.00
4598;BME280;62772;48.646;8.906;2023-04-19T03:29:20;96647.88;;;7.02;100.00
4598;BME280;62772;48.646;8.906;2023-04-19T03:34:41;96649.38;;;7.13;100.00
4598;BME280;62772;48.646;8.906;2023-04-19T03:39:42;96648.59;;;7.13;100.00
4598;BME280;62772;48.646;8.906;2023-04-19T03:44:47;96652.63;;;7.05;100.00
4598;BME280;62772;48.646;8.906;2023-04-19T03:49:50;96643.44;;;6.92;100.00
4598;BME280;62772;48.646;8.906;2023-04-19T03:54:51;96636.72;;;7.00;100.00
4598;BME280;62772;48.646;8.906;2023-04-19T04:00:03;96639.91;;;7.02;100.00
4598;BME280;62772;48.646;8.906;2023-04-19T04:05:14;96630.63;;;6.99;100.00
4598;BME280;62772;48.646;8.906;2023-04-19T04:10:15;96634.34;;;6.98;100.00
4598;BME280;62772;48.646;8.906;2023-04-19T04:15:19;96629.28;;;7.02;100.00
4598;BME280;62772;48.646;8.906;2023-04-19T04:20:25;96633.53;;;6.68;100.00
4598;BME280;62772;48.646;8.906;2023-04-19T04:25:31;96626.25;;;6.84;100.00
4598;BME280;62772;48.646;8.906;2023-04-19T04:30:37;96641.06;;;6.51;100.00
4598;BME280;62772;48.646;8.906;2023-04-19T04:35:39;96646.81;;;6.68;100.00
4598;BME280;62772;48.646;8.906;2023-04-19T04:40:50;96645.16;;;6.72;100.00
4598;BME280;62772;48.646;8.906;2023-04-19T04:45:52;96641.66;;;6.38;100.00
4598;BME280;62772;48.646;8.906;2023-04-19T04:50:56;96645.84;;;6.49;100.00
4598;BME280;62772;48.646;8.906;2023-04-19T04:55:57;96638.16;;;6.52;100.00
4598;BME280;62772;48.646;8.906;2023-04-19T05:00:58;96642.56;;;6.67;100.00
4598;BME280;62772;48.646;8.906;2023-04-19T05:06:00;96648.50;;;6.88;100.00
4598;BME280;62772;48.646;8.906;2023-04-19T05:11:02;96643.41;;;6.58;100.00
4598;BME280;62772;48.646;8.906;2023-04-19T05:16:05;96637.47;;;6.31;100.00
4598;BME280;62772;48.646;8.906;2023-04-19T05:21:07;96640.84;;;6.42;100.00
4598;BME280;62772;48.646;8.906;2023-04-19T05:26:10;96637.28;;;6.62;100.00
4598;BME280;62772;48.646;8.906;2023-04-19T05:31:13;96649.81;;;6.51;100.00
4598;BME280;62772;48.646;8.906;2023-04-19T05:36:24;96653.75;;;6.59;100.00
4598;BME280;62772;48.646;8.906;2023-04-19T05:41:26;96650.56;;;6.62;100.00
4598;BME280;62772;48.646;8.906;2023-04-19T05:46:26;96659.09;;;6.54;100.00
4598;BME280;62772;48.646;8.906;2023-04-19T05:51:28;96660.22;;;6.43;100.00
4598;BME280;62772;48.646;8.906;2023-04-19T05:56:38;96669.72;;;6.49;100.00
4598;BME280;62772;48.646;8.906;2023-04-19T06:01:39;96663.63;;;6.48;100.00
4598;BME280;62772;48.646;8.906;2023-04-19T06:06:40;96662.03;;;6.47;100.00
4598;BME280;62772;48.646;8.906;2023-04-19T06:11:40;96665.22;;;6.49;100.00
4598;BME280;62772;48.646;8.906;2023-04-19T06:16:42;96676.00;;;6.63;100.00
4598;BME280;62772;48.646;8.906;2023-04-19T06:21:42;96678.16;;;6.61;100.00
4598;BME280;62772;48.646;8.906;2023-04-19T06:26:43;96665.47;;;6.53;100.00
4598;BME280;62772;48.646;8.906;2023-04-19T06:31:43;96674.84;;;6.80;100.00
4598;BME280;62772;48.646;8.906;2023-04-19T06:36:45;96672.94;;;6.90;100.00
4598;BME280;62772;48.646;8.906;2023-04-19T06:41:45;96673.50;;;6.82;100.00
4598;BME280;62772;48.646;8.906;2023-04-19T06:46:49;96672.09;;;6.95;100.00
4598;BME280;62772;48.646;8.906;2023-04-19T06:51:50;96672.84;;;7.01;100.00
4598;BME280;62772;48.646;8.906;2023-04-19T06:56:50;96667.69;;;7.15;100.00
4598;BME280;62772;48.646;8.906;2023-04-19T07:01:51;96658.97;;;7.09;100.00
4598;BME280;62772;48.646;8.906;2023-04-19T07:06:51;96666.38;;;7.12;100.00
4598;BME280;62772;48.646;8.906;2023-04-19T07:11:52;96662.59;;;7.18;100.00
4598;BME280;62772;48.646;8.906;2023-04-19T07:16:52;96665.75;;;7.20;100.00
4598;BME280;62772;48.646;8.906;2023-04-19T07:21:53;96671.06;;;7.20;100.00
4598;BME280;62772;48.646;8.906;2023-04-19T07:26:54;96654.88;;;7.22;100.00
4598;BME280;62772;48.646;8.906;2023-04-19T07:31:54;96657.16;;;7.34;100.00
4598;BME280;62772;48.646;8.906;2023-04-19T07:36:55;96659.94;;;7.48;100.00
4598;BME280;62772;48.646;8.906;2023-04-19T07:41:55;96653.00;;;7.52;100.00
4598;BME280;62772;48.646;8.906;2023-04-19T07:46:55;96656.97;;;7.54;100.00
4598;BME280;62772;48.646;8.906;2023-04-19T07:51:56;96656.56;;;7.66;100.00
4598;BME280;62772;48.646;8.906;2023-04-19T07:56:56;96647.13;;;7.79;100.00
4598;BME280;62772;48.646;8.906;2023-04-19T08:01:58;96648.03;;;7.93;100.00
4598;BME280;62772;48.646;8.906;2023-04-19T08:06:58;96644.97;;;8.05;100.00
4598;BME280;62772;48.646;8.906;2023-04-19T08:11:59;96646.44;;;8.16;100.00
4598;BME280;62772;48.646;8.906;2023-04-19T08:17:00;96634.78;;;8.31;100.00
4598;BME280;62772;48.646;8.906;2023-04-19T08:22:00;96627.28;;;8.33;100.00
4598;BME280;62772;48.646;8.906;2023-04-19T08:27:03;96631.75;;;8.43;100.00
4598;BME280;62772;48.646;8.906;2023-04-19T08:32:05;96624.59;;;8.58;100.00
4598;BME280;62772;48.646;8.906;2023-04-19T08:37:05;96627.69;;;8.65;100.00
4598;BME280;62772;48.646;8.906;2023-04-19T08:42:08;96624.91;;;8.56;100.00
4598;BME280;62772;48.646;8.906;2023-04-19T08:47:10;96639.28;;;8.55;100.00
4598;BME280;62772;48.646;8.906;2023-04-19T08:52:12;96630.56;;;8.68;100.00
4598;BME280;62772;48.646;8.906;2023-04-19T08:57:13;96625.09;;;8.79;100.00
4598;BME280;62772;48.646;8.906;2023-04-19T09:02:14;96627.84;;;8.74;100.00
4598;BME280;62772;48.646;8.906;2023-04-19T09:07:22;96621.25;;;8.85;100.00
4598;BME280;62772;48.646;8.906;2023-04-19T09:12:23;96611.78;;;8.79;100.00
4598;BME280;62772;48.646;8.906;2023-04-19T09:17:23;96602.16;;;8.97;100.00
4598;BME280;62772;48.646;8.906;2023-04-19T09:22:24;96604.28;;;9.14;100.00
4598;BME280;62772;48.646;8.906;2023-04-19T09:32:27;96598.69;;;9.29;100.00
4598;BME280;62772;48.646;8.906;2023-04-19T09:37:28;96587.13;;;9.20;100.00
4598;BME280;62772;48.646;8.906;2023-04-19T09:42:44;96578.66;;;9.59;100.00
4598;BME280;62772;48.646;8.906;2023-04-19T09:48:00;96579.44;;;9.46;100.00
4598;BME280;62772;48.646;8.906;2023-04-19T09:53:02;96569.06;;;9.72;100.00
4598;BME280;62772;48.646;8.906;2023-04-19T09:58:02;96563.41;;;9.88;100.00
4598;BME280;62772;48.646;8.906;2023-04-19T10:03:03;96562.34;;;9.75;100.00
4598;BME280;62772;48.646;8.906;2023-04-19T10:08:10;96552.53;;;9.98;100.00
4598;BME280;62772;48.646;8.906;2023-04-19T10:13:12;96553.03;;;10.00;100.00
4598;BME280;62772;48.646;8.906;2023-04-19T10:18:12;96552.69;;;10.15;100.00
4598;BME280;62772;48.646;8.906;2023-04-19T10:23:14;96541.16;;;10.43;100.00
4598;BME280;62772;48.646;8.906;2023-04-19T10:28:15;96540.84;;;10.44;100.00
4598;BME280;62772;48.646;8.906;2023-04-19T10:33:23;96544.31;;;10.45;100.00
4598;BME280;62772;48.646;8.906;2023-04-19T10:43:38;96539.81;;;10.54;100.00
4598;BME280;62772;48.646;8.906;2023-04-19T10:48:44;96535.63;;;10.62;100.00
4598;BME280;62772;48.646;8.906;2023-04-19T10:54:05;96528.84;;;10.19;100.00
4598;BME280;62772;48.646;8.906;2023-04-19T11:09:39;96504.50;;;10.34;100.00
4598;BME280;62772;48.646;8.906;2023-04-19T11:14:45;96507.75;;;10.45;100.00
4598;BME280;62772;48.646;8.906;2023-04-19T11:20:03;96505.69;;;10.28;100.00
4598;BME280;62772;48.646;8.906;2023-04-19T11:25:11;96502.09;;;10.47;100.00
4598;BME280;62772;48.646;8.906;2023-04-19T11:30:14;96498.72;;;10.64;100.00
4598;BME280;62772;48.646;8.906;2023-04-19T11:35:26;96495.84;;;10.51;100.00
4598;BME280;62772;48.646;8.906;2023-04-19T11:40:27;96488.47;;;10.57;100.00
4598;BME280;62772;48.646;8.906;2023-04-19T11:45:35;96489.88;;;10.55;100.00
4598;BME280;62772;48.646;8.906;2023-04-19T11:50:41;96490.31;;;10.48;100.00
4598;BME280;62772;48.646;8.906;2023-04-19T11:55:45;96480.34;;;10.17;100.00
4598;BME280;62772;48.646;8.906;2023-04-19T12:00:46;96480.47;;;10.12;100.00
4598;BME280;62772;48.646;8.906;2023-04-19T12:05:56;96476.44;;;10.01;100.00
4598;BME280;62772;48.646;8.906;2023-04-19T12:10:57;96475.88;;;9.90;100.00
4598;BME280;62772;48.646;8.906;2023-04-19T12:15:59;96480.31;;;9.94;100.00
4598;BME280;62772;48.646;8.906;2023-04-19T12:20:59;96474.91;;;9.86;100.00
4598;BME280;62772;48.646;8.906;2023-04-19T12:26:03;96476.44;;;9.64;100.00
4598;BME280;62772;48.646;8.906;2023-04-19T12:31:07;96470.66;;;9.48;100.00
4598;BME280;62772;48.646;8.906;2023-04-19T12:36:07;96469.25;;;9.37;100.00
4598;BME280;62772;48.646;8.906;2023-04-19T12:41:07;96474.09;;;9.35;100.00
4598;BME280;62772;48.646;8.906;2023-04-19T12:46:08;96470.53;;;9.25;100.00
4598;BME280;62772;48.646;8.906;2023-04-19T12:51:08;96468.09;;;9.15;100.00
4598;BME280;62772;48.646;8.906;2023-04-19T12:56:09;96461.47;;;9.13;100.00
4598;BME280;62772;48.646;8.906;2023-04-19T13:01:11;96457.31;;;9.06;100.00
4598;BME280;62772;48.646;8.906;2023-04-19T13:06:12;96456.94;;;9.13;100.00
4598;BME280;62772;48.646;8.906;2023-04-19T13:11:14;96456.34;;;8.88;100.00
4598;BME280;62772;48.646;8.906;2023-04-19T13:16:15;96455.13;;;8.67;100.00
4598;BME280;62772;48.646;8.906;2023-04-19T13:21:15;96448.03;;;8.62;100.00
4598;BME280;62772;48.646;8.906;2023-04-19T13:26:16;96447.81;;;8.59;100.00
4598;BME280;62772;48.646;8.906;2023-04-19T13:31:16;96447.72;;;8.31;100.00
4598;BME280;62772;48.646;8.906;2023-04-19T13:36:17;96440.38;;;7.90;100.00
4598;BME280;62772;48.646;8.906;2023-04-19T13:41:17;96443.25;;;7.93;100.00
4598;BME280;62772;48.646;8.906;2023-04-19T13:46:18;96436.41;;;8.06;100.00
4598;BME280;62772;48.646;8.906;2023-04-19T13:51:19;96428.78;;;7.99;100.00
4598;BME280;62772;48.646;8.906;2023-04-19T13:56:19;96429.63;;;7.81;100.00
4598;BME280;62772;48.646;8.906;2023-04-19T14:01:20;96419.00;;;7.81;100.00
4598;BME280;62772;48.646;8.906;2023-04-19T14:06:20;96414.72;;;7.99;100.00
4598;BME280;62772;48.646;8.906;2023-04-19T14:11:21;96418.47;;;7.79;100.00
4598;BME280;62772;48.646;8.906;2023-04-19T14:16:22;96408.72;;;7.55;100.00
4598;BME280;62772;48.646;8.906;2023-04-19T14:21:24;96403.53;;;7.83;100.00
4598;BME280;62772;48.646;8.906;2023-04-19T14:26:25;96402.94;;;7.86;100.00
4598;BME280;62772;48.646;8.906;2023-04-19T14:31:25;96394.66;;;8.07;100.00
4598;BME280;62772;48.646;8.906;2023-04-19T14:36:25;96395.22;;;8.04;100.00
4598;BME280;62772;48.646;8.906;2023-04-19T14:41:27;96387.03;;;8.00;100.00
4598;BME280;62772;48.646;8.906;2023-04-19T14:46:27;96388.41;;;7.97;100.00
4598;BME280;62772;48.646;8.906;2023-04-19T14:51:28;96382.13;;;8.07;100.00
4598;BME280;62772;48.646;8.906;2023-04-19T14:56:30;96374.31;;;7.64;100.00
4598;BME280;62772;48.646;8.906;2023-04-19T15:01:30;96371.09;;;8.14;100.00
4598;BME280;62772;48.646;8.906;2023-04-19T15:06:31;96362.97;;;8.38;100.00
4598;BME280;62772;48.646;8.906;2023-04-19T15:11:31;96364.38;;;8.35;100.00
4598;BME280;62772;48.646;8.906;2023-04-19T15:16:32;96358.38;;;8.44;100.00
4598;BME280;62772;48.646;8.906;2023-04-19T15:21:32;96355.81;;;8.52;100.00
4598;BME280;62772;48.646;8.906;2023-04-19T15:26:34;96355.44;;;8.45;100.00
4598;BME280;62772;48.646;8.906;2023-04-19T15:31:34;96360.47;;;8.61;100.00
4598;BME280;62772;48.646;8.906;2023-04-19T15:36:35;96357.22;;;8.50;100.00
4598;BME280;62772;48.646;8.906;2023-04-19T15:41:35;96360.59;;;8.36;100.00
4598;BME280;62772;48.646;8.906;2023-04-19T15:46:36;96356.97;;;8.32;100.00
4598;BME280;62772;48.646;8.906;2023-04-19T15:51:36;96355.22;;;8.42;100.00
4598;BME280;62772;48.646;8.906;2023-04-19T15:56:38;96350.25;;;8.35;100.00
4598;BME280;62772;48.646;8.906;2023-04-19T16:01:38;96357.13;;;8.22;100.00
4598;BME280;62772;48.646;8.906;2023-04-19T16:06:39;96348.09;;;8.37;100.00
4598;BME280;62772;48.646;8.906;2023-04-19T16:11:39;96352.47;;;8.47;100.00
4598;BME280;62772;48.646;8.906;2023-04-19T16:16:40;96351.88;;;8.50;100.00
4598;BME280;62772;48.646;8.906;2023-04-19T16:21:40;96351.38;;;8.62;100.00
4598;BME280;62772;48.646;8.906;2023-04-19T16:26:40;96353.16;;;8.66;100.00
4598;BME280;62772;48.646;8.906;2023-04-19T16:31:41;96347.13;;;8.75;100.00
4598;BME280;62772;48.646;8.906;2023-04-19T16:36:41;96347.84;;;8.66;100.00
4598;BME280;62772;48.646;8.906;2023-04-19T16:41:44;96348.59;;;8.39;100.00
4598;BME280;62772;48.646;8.906;2023-04-19T16:46:44;96341.72;;;8.66;100.00
4598;BME280;62772;48.646;8.906;2023-04-19T16:51:44;96333.25;;;8.50;100.00
4598;BME280;62772;48.646;8.906;2023-04-19T16:56:45;96329.19;;;8.80;100.00
4598;BME280;62772;48.646;8.906;2023-04-19T17:01:46;96334.22;;;8.54;100.00
4598;BME280;62772;48.646;8.906;2023-04-19T17:06:46;96336.16;;;8.34;100.00
4598;BME280;62772;48.646;8.906;2023-04-19T17:11:47;96333.84;;;8.47;100.00
4598;BME280;62772;48.646;8.906;2023-04-19T17:16:47;96333.84;;;8.61;100.00
4598;BME280;62772;48.646;8.906;2023-04-19T17:21:47;96328.81;;;8.59;100.00
4598;BME280;62772;48.646;8.906;2023-04-19T17:26:48;96323.22;;;8.61;100.00
4598;BME280;62772;48.646;8.906;2023-04-19T17:31:49;96322.88;;;8.76;100.00
4598;BME280;62772;48.646;8.906;2023-04-19T17:36:49;96324.47;;;8.91;100.00
4598;BME280;62772;48.646;8.906;2023-04-19T17:41:50;96324.16;;;8.93;100.00
4598;BME280;62772;48.646;8.906;2023-04-19T17:46:50;96328.59;;;8.42;100.00
4598;BME280;62772;48.646;8.906;2023-04-19T17:51:51;96323.97;;;8.75;100.00
4598;BME280;62772;48.646;8.906;2023-04-19T17:56:52;96315.81;;;8.58;100.00
4598;BME280;62772;48.646;8.906;2023-04-19T18:01:53;96315.69;;;8.49;100.00
4598;BME280;62772;48.646;8.906;2023-04-19T18:06:53;96320.53;;;8.61;100.00
4598;BME280;62772;48.646;8.906;2023-04-19T18:11:54;96321.22;;;8.66;100.00
4598;BME280;62772;48.646;8.906;2023-04-19T18:16:55;96316.38;;;8.68;100.00
4598;BME280;62772;48.646;8.906;2023-04-19T18:21:55;96315.41;;;8.50;100.00
4598;BME280;62772;48.646;8.906;2023-04-19T18:26:56;96318.53;;;8.39;100.00
4598;BME280;62772;48.646;8.906;2023-04-19T18:31:57;96325.63;;;8.29;100.00
4598;BME280;62772;48.646;8.906;2023-04-19T18:36:59;96322.41;;;8.46;100.00
4598;BME280;62772;48.646;8.906;2023-04-19T18:42:00;96333.28;;;8.17;100.00
4598;BME280;62772;48.646;8.906;2023-04-19T18:47:02;96325.84;;;7.86;100.00
4598;BME280;62772;48.646;8.906;2023-04-19T18:52:02;96327.84;;;7.94;100.00
4598;BME280;62772;48.646;8.906;2023-04-19T18:57:03;96338.34;;;7.15;100.00
4598;BME280;62772;48.646;8.906;2023-04-19T19:02:03;96341.28;;;7.32;100.00
4598;BME280;62772;48.646;8.906;2023-04-19T19:07:04;96342.50;;;7.21;100.00
4598;BME280;62772;48.646;8.906;2023-04-19T19:12:04;96348.66;;;6.97;100.00
4598;BME280;62772;48.646;8.906;2023-04-19T19:17:05;96352.34;;;6.77;100.00
4598;BME280;62772;48.646;8.906;2023-04-19T19:22:06;96358.50;;;6.72;100.00
4598;BME280;62772;48.646;8.906;2023-04-19T19:27:07;96364.84;;;6.52;100.00
4598;BME280;62772;48.646;8.906;2023-04-19T19:32:07;96367.59;;;6.42;97.42
4598;BME280;62772;48.646;8.906;2023-04-19T19:37:08;96368.69;;;6.41;93.06
4598;BME280;62772;48.646;8.906;2023-04-19T19:42:10;96371.44;;;6.31;95.54
4598;BME280;62772;48.646;8.906;2023-04-19T19:47:13;96376.03;;;6.20;94.90
4598;BME280;62772;48.646;8.906;2023-04-19T19:52:13;96371.00;;;6.18;95.78
4598;BME280;62772;48.646;8.906;2023-04-19T19:57:13;96371.63;;;6.10;93.81
4598;BME280;62772;48.646;8.906;2023-04-19T20:02:14;96366.88;;;6.07;95.07
4598;BME280;62772;48.646;8.906;2023-04-19T20:07:15;96375.06;;;6.11;95.75
4598;BME280;62772;48.646;8.906;2023-04-19T20:12:15;96371.16;;;6.03;94.03
4598;BME280;62772;48.646;8.906;2023-04-19T20:17:15;96369.84;;;6.01;93.75
4598;BME280;62772;48.646;8.906;2023-04-19T20:22:17;96380.19;;;6.02;95.57
4598;BME280;62772;48.646;8.906;2023-04-19T20:27:17;96372.56;;;5.90;95.86
4598;BME280;62772;48.646;8.906;2023-04-19T20:32:18;96367.16;;;5.66;98.39
4598;BME280;62772;48.646;8.906;2023-04-19T20:37:18;96370.38;;;5.23;100.00
4598;BME280;62772;48.646;8.906;2023-04-19T20:42:22;96363.13;;;5.39;100.00
4598;BME280;62772;48.646;8.906;2023-04-19T20:47:23;96363.50;;;5.22;100.00
4598;BME280;62772;48.646;8.906;2023-04-19T20:52:26;96366.72;;;5.59;97.13
4598;BME280;62772;48.646;8.906;2023-04-19T20:57:26;96367.03;;;5.52;97.69
4598;BME280;62772;48.646;8.906;2023-04-19T21:02:27;96364.94;;;5.44;97.68
4598;BME280;62772;48.646;8.906;2023-04-19T21:07:28;96359.22;;;5.32;100.00
4598;BME280;62772;48.646;8.906;2023-04-19T21:12:28;96353.66;;;5.28;100.00
4598;BME280;62772;48.646;8.906;2023-04-19T21:17:29;96353.25;;;5.50;95.56
4598;BME280;62772;48.646;8.906;2023-04-19T21:22:30;96349.47;;;5.22;100.00
4598;BME280;62772;48.646;8.906;2023-04-19T21:27:30;96350.44;;;5.31;100.00
4598;BME280;62772;48.646;8.906;2023-04-19T21:32:33;96349.50;;;5.12;100.00
4598;BME280;62772;48.646;8.906;2023-04-19T21:37:34;96346.31;;;5.15;100.00
4598;BME280;62772;48.646;8.906;2023-04-19T21:42:35;96344.91;;;3.66;100.00
4598;BME280;62772;48.646;8.906;2023-04-19T21:47:35;96339.03;;;3.23;100.00
4598;BME280;62772;48.646;8.906;2023-04-19T21:52:36;96336.94;;;3.97;100.00
4598;BME280;62772;48.646;8.906;2023-04-19T21:57:36;96333.78;;;3.85;100.00
4598;BME280;62772;48.646;8.906;2023-04-19T22:02:37;96335.09;;;3.92;100.00
4598;BME280;62772;48.646;8.906;2023-04-19T22:07:38;96323.75;;;3.76;100.00
4598;BME280;62772;48.646;8.906;2023-04-19T22:12:39;96322.63;;;4.13;100.00
4598;BME280;62772;48.646;8.906;2023-04-19T22:17:39;96321.38;;;3.70;100.00
4598;BME280;62772;48.646;8.906;2023-04-19T22:22:40;96318.16;;;4.09;100.00
4598;BME280;62772;48.646;8.906;2023-04-19T22:27:40;96317.31;;;4.39;100.00
4598;BME280;62772;48.646;8.906;2023-04-19T22:32:40;96310.19;;;4.34;100.00
4598;BME280;62772;48.646;8.906;2023-04-19T22:37:41;96308.91;;;4.11;100.00
4598;BME280;62772;48.646;8.906;2023-04-19T22:42:41;96293.31;;;4.10;100.00
4598;BME280;62772;48.646;8.906;2023-04-19T22:47:42;96288.72;;;4.46;100.00
4598;BME280;62772;48.646;8.906;2023-04-19T22:52:42;96281.69;;;4.11;100.00
4598;BME280;62772;48.646;8.906;2023-04-19T22:57:43;96281.78;;;3.70;100.00
4598;BME280;62772;48.646;8.906;2023-04-19T23:02:44;96272.03;;;3.39;100.00
4598;BME280;62772;48.646;8.906;2023-04-19T23:07:44;96268.81;;;2.96;100.00
4598;BME280;62772;48.646;8.906;2023-04-19T23:12:45;96270.97;;;3.51;100.00
4598;BME280;62772;48.646;8.906;2023-04-19T23:17:48;96256.94;;;3.60;100.00
4598;BME280;62772;48.646;8.906;2023-04-19T23:22:49;96256.72;;;3.36;100.00
4598;BME280;62772;48.646;8.906;2023-04-19T23:27:49;96244.03;;;3.13;100.00
4598;BME280;62772;48.646;8.906;2023-04-19T23:32:50;96245.69;;;2.20;100.00
4598;BME280;62772;48.646;8.906;2023-04-19T23:37:50;96232.81;;;2.33;100.00
4598;BME280;62772;48.646;8.906;2023-04-19T23:42:51;96228.31;;;0.96;100.00
4598;BME280;62772;48.646;8.906;2023-04-19T23:47:51;96225.19;;;0.71;100.00
4598;BME280;62772;48.646;8.906;2023-04-19T23:52:52;96224.22;;;1.48;100.00
4598;BME280;62772;48.646;8.906;2023-04-19T23:57:52;96209.88;;;0.63;100.00
